Time;durP1;ratioP1;P1;durP2;ratioP2;P2;SDS_P1;SDS_P2;PMS_P1;PMS_P2;Temp;Humidity;BMP_temperature;BMP_pressure;BME280_temperature;BME280_humidity;BME280_pressure;Samples;Min_cycle;Max_cycle;Signal;HPM_P1;HPM_P2
2022/02/06 00:01:49;;;;;;;;;3.00;3.00;;;;;10.14;60.05;101971.03;5036646;28;45757;-75
2022/02/06 00:04:15;;;;;;;;;4.00;2.00;;;;;10.06;60.56;101966.34;5036204;28;45285;-75
2022/02/06 00:06:40;;;;;;;;;6.67;3.00;;;;;10.07;60.43;101947.06;5036358;28;46962;-74
2022/02/06 00:09:05;;;;;;;;;7.67;3.67;;;;;10.13;59.99;101944.59;5036906;28;45270;-74
2022/02/06 00:11:31;;;;;;;;;10.00;3.00;;;;;10.11;60.19;101926.06;5036360;28;45662;-74
2022/02/06 00:13:56;;;;;;;;;9.67;3.00;;;;;10.15;60.23;101942.88;5035835;28;52940;-74
2022/02/06 00:16:22;;;;;;;;;3.67;3.67;;;;;10.11;60.64;101926.06;5035473;28;46654;-74
2022/02/06 00:18:48;;;;;;;;;3.33;2.00;;;;;10.22;60.24;101932.53;5036416;28;45414;-74
2022/02/06 00:21:16;;;;;;;;;7.33;7.33;;;;;10.26;60.53;101944.13;5036680;28;45872;-75
2022/02/06 00:23:43;;;;;;;;;5.33;3.00;;;;;10.27;60.44;101935.34;5036727;28;45570;-75
2022/02/06 00:26:18;;;;;;;;;4.00;2.00;;;;;10.29;60.51;101930.16;5035615;28;46490;-75
2022/02/06 00:28:56;;;;;;;;;8.00;3.00;;;;;10.28;60.19;101929.25;5036682;28;45274;-75
2022/02/06 00:32:08;;;;;;;;;6.67;3.00;;;;;10.31;60.19;101939.88;5030093;28;45498;-75
2022/02/06 00:34:33;;;;;;;;;6.00;4.00;;;;;10.34;60.05;101932.06;5029352;28;45355;-75
2022/02/06 00:39:42;;;;;;;;;7.33;3.00;;;;;10.35;60.20;101907.47;5029321;28;45400;-74
2022/02/06 00:42:08;;;;;;;;;7.67;4.67;;;;;10.25;60.21;101884.28;5036278;28;45505;-75
2022/02/06 00:44:33;;;;;;;;;3.33;3.00;;;;;10.33;60.05;101903.84;5037000;28;45202;-75
2022/02/06 00:47:02;;;;;;;;;3.33;3.00;;;;;10.35;60.15;101901.28;5034034;28;59685;-75
2022/02/06 00:49:29;;;;;;;;;4.67;3.00;;;;;10.35;60.25;101899.53;5036232;28;45373;-75
2022/02/06 00:52:02;;;;;;;;;3.00;2.33;;;;;10.31;60.20;101884.44;5035749;28;45340;-74
2022/02/06 00:54:28;;;;;;;;;5.33;3.33;;;;;10.35;60.12;101898.66;5035949;28;45297;-74
2022/02/06 00:56:53;;;;;;;;;7.33;3.00;;;;;10.34;60.02;101903.03;5035159;28;61484;-74
2022/02/06 00:59:20;;;;;;;;;7.33;2.33;;;;;10.36;60.21;101901.31;5035576;28;57536;-75
2022/02/06 01:01:45;;;;;;;;;4.00;3.00;;;;;10.34;60.14;101891.59;5036041;28;45570;-74
2022/02/06 01:04:11;;;;;;;;;3.67;2.33;;;;;10.36;59.89;101898.69;5018174;28;45517;-75
2022/02/06 01:06:37;;;;;;;;;7.00;3.67;;;;;10.34;60.10;101908.31;5036026;28;46571;-74
2022/02/06 01:09:03;;;;;;;;;3.33;2.33;;;;;10.35;60.39;101894.25;5017511;28;45438;-75
2022/02/06 01:11:29;;;;;;;;;6.00;3.00;;;;;10.27;60.20;101879.94;5018374;28;45305;-74
2022/02/06 01:16:45;;;;;;;;;2.00;2.00;;;;;10.34;60.53;101884.56;5027392;28;45321;-75
2022/02/06 01:19:19;;;;;;;;;2.00;2.00;;;;;10.35;60.56;101885.44;5035660;28;45508;-74
2022/02/06 01:22:10;;;;;;;;;6.67;2.00;;;;;10.36;60.39;101885.47;5035734;28;45583;-75
2022/02/06 01:27:16;;;;;;;;;2.00;1.00;;;;;10.42;60.43;101876.84;5018355;28;46360;-74
2022/02/06 01:32:14;;;;;;;;;2.00;2.00;;;;;10.39;60.33;101875.03;5009413;28;45367;-75
2022/02/06 01:34:51;;;;;;;;;2.67;2.00;;;;;10.38;60.23;101872.31;5035582;28;45372;-74
2022/02/06 01:42:16;;;;;;;;;2.00;1.67;;;;;10.34;60.25;101879.28;5036395;28;45378;-74
2022/02/06 02:01:19;;;;;;;;;1.00;1.00;;;;;10.34;60.04;101804.47;5002622;28;46874;-74
2022/02/06 02:04:02;;;;;;;;;4.67;1.00;;;;;10.36;60.36;101811.56;5038754;28;45347;-75
2022/02/06 02:27:54;;;;;;;;;2.00;1.00;;;;;10.33;60.43;101795.63;5033382;28;45234;-74
2022/02/06 02:44:15;;;;;;;;;7.67;1.67;;;;;10.34;61.01;101788.63;5038117;28;45503;-74
2022/02/06 02:46:29;;;;;;;;;1.67;1.67;;;;;10.26;60.89;101780.47;5037315;28;45407;-73
2022/02/06 02:48:56;;;;;;;;;0.00;0.00;;;;;10.21;61.05;101748.66;5038191;28;45527;-74
2022/02/06 02:51:25;;;;;;;;;3.00;2.00;;;;;10.31;61.47;101777.97;5037903;28;47650;-74
2022/02/06 02:53:58;;;;;;;;;4.00;1.00;;;;;10.31;61.07;101763.03;5037111;28;45502;-74
2022/02/06 02:56:47;;;;;;;;;9.67;1.00;;;;;10.34;61.60;101762.22;5038317;28;45360;-74
2022/02/06 02:59:31;;;;;;;;;2.00;1.00;;;;;10.30;61.29;101739.22;5037921;28;47080;-75
2022/02/06 03:02:00;;;;;;;;;4.00;1.33;;;;;10.33;61.42;101728.75;5036807;28;47519;-75
2022/02/06 03:04:26;;;;;;;;;3.00;1.00;;;;;10.37;61.52;101720.94;5037182;28;45329;-75
2022/02/06 03:06:52;;;;;;;;;4.00;1.00;;;;;10.37;61.83;101712.13;5037659;28;45269;-74
2022/02/06 03:09:18;;;;;;;;;2.00;0.33;;;;;10.29;61.57;101716.34;5038009;28;45459;-74
2022/02/06 03:11:44;;;;;;;;;3.33;2.00;;;;;10.35;62.20;101706.81;5037476;28;46155;-74
2022/02/06 03:14:15;;;;;;;;;9.00;2.00;;;;;10.40;61.81;101712.22;5018918;28;48683;-74
2022/02/06 03:16:48;;;;;;;;;2.67;1.00;;;;;10.37;62.22;101683.09;5020802;28;45401;-74
2022/02/06 03:19:19;;;;;;;;;2.00;1.00;;;;;10.32;62.07;101656.56;5036669;28;45365;-74
2022/02/06 03:21:45;;;;;;;;;2.00;1.00;;;;;10.41;62.17;101680.56;5036837;28;46181;-74
2022/02/06 03:26:42;;;;;;;;;1.00;1.00;;;;;10.42;62.35;101689.38;5037876;28;45159;-75
2022/02/06 03:29:07;;;;;;;;;3.00;1.00;;;;;10.33;62.65;101686.50;5025748;28;45674;-74
2022/02/06 03:31:32;;;;;;;;;2.33;2.00;;;;;10.39;62.67;101690.22;5037300;28;57331;-74
2022/02/06 03:33:58;;;;;;;;;2.00;0.67;;;;;10.27;63.28;101684.59;5036706;28;61230;-75
2022/02/06 03:36:23;;;;;;;;;0.00;0.00;;;;;10.39;62.84;101691.97;5036830;28;54990;-74
2022/02/06 03:38:51;;;;;;;;;2.33;1.00;;;;;10.38;63.06;101685.75;5037067;28;53493;-75
2022/02/06 03:41:18;;;;;;;;;2.00;1.00;;;;;10.38;63.48;101682.22;5036366;28;47012;-74
2022/02/06 03:46:31;;;;;;;;;4.00;2.67;;;;;10.39;62.93;101691.97;5037039;28;45578;-74
2022/02/06 03:49:11;;;;;;;;;3.00;1.00;;;;;10.40;63.18;101680.53;5031600;28;45387;-74
2022/02/06 03:51:38;;;;;;;;;6.00;3.00;;;;;10.42;63.29;101674.44;5037230;28;46518;-75
2022/02/06 03:54:04;;;;;;;;;1.00;1.00;;;;;10.41;63.83;101680.56;5036049;28;45276;-74
2022/02/06 03:56:32;;;;;;;;;1.00;1.00;;;;;10.34;63.07;101654.88;5036947;28;45214;-74
2022/02/06 03:58:57;;;;;;;;;1.67;1.67;;;;;10.32;63.83;101653.94;5030767;28;45490;-74
2022/02/06 04:01:23;;;;;;;;;1.67;1.00;;;;;10.41;63.57;101655.94;5018977;28;46287;-75
2022/02/06 04:03:48;;;;;;;;;3.33;2.00;;;;;10.32;64.07;101648.66;5036773;28;45626;-74
2022/02/06 04:06:14;;;;;;;;;2.67;2.67;;;;;10.27;64.31;101652.94;5036820;28;45448;-75
2022/02/06 04:08:40;;;;;;;;;6.67;2.00;;;;;10.33;64.07;101658.34;5036044;28;45342;-75
2022/02/06 04:11:11;;;;;;;;;3.00;2.00;;;;;10.24;64.28;101660.78;5036605;28;46644;-74
2022/02/06 04:13:42;;;;;;;;;3.00;1.00;;;;;10.30;64.57;101660.94;5036302;28;45301;-74
2022/02/06 04:16:14;;;;;;;;;3.00;1.33;;;;;10.29;64.39;101679.38;5036297;28;45396;-74
2022/02/06 04:18:52;;;;;;;;;4.33;1.33;;;;;10.29;64.30;101658.25;5031501;28;45538;-74
2022/02/06 04:21:17;;;;;;;;;1.67;1.00;;;;;10.27;64.93;101645.00;5036588;28;47408;-75
2022/02/06 04:23:43;;;;;;;;;1.00;1.00;;;;;10.28;64.20;101641.53;5035628;28;54297;-75
2022/02/06 04:26:08;;;;;;;;;3.67;1.33;;;;;10.26;64.71;101645.88;5037110;28;45922;-75
2022/02/06 04:28:34;;;;;;;;;2.33;1.00;;;;;10.26;64.74;101640.59;5018764;28;49628;-74
2022/02/06 04:30:59;;;;;;;;;4.00;2.00;;;;;10.17;64.84;101600.72;5036248;28;46690;-75
2022/02/06 04:33:25;;;;;;;;;1.00;1.00;;;;;10.23;64.76;101593.91;5036761;28;45341;-74
2022/02/06 04:35:54;;;;;;;;;1.00;1.00;;;;;10.26;64.90;101590.44;5018491;28;45341;-74
2022/02/06 05:23:45;;;;;;;;;2.00;2.00;;;;;10.28;65.86;101541.25;5032771;28;45687;-75
2022/02/06 05:29:22;;;;;;;;;1.00;1.00;;;;;10.28;65.75;101520.13;5035221;28;45942;-74
2022/02/06 05:34:16;;;;;;;;;1.00;1.00;;;;;10.34;65.70;101528.19;5035784;28;46445;-74
2022/02/06 05:36:41;;;;;;;;;7.00;1.00;;;;;10.31;65.95;101533.38;5033992;28;57223;-74
2022/02/06 05:39:06;;;;;;;;;4.00;3.00;;;;;10.36;65.59;101529.09;5035272;28;45440;-74
2022/02/06 05:41:32;;;;;;;;;3.33;1.00;;;;;10.36;65.59;101515.91;5035340;28;53884;-75
2022/02/06 05:43:57;;;;;;;;;3.00;1.00;;;;;10.34;65.62;101520.25;5035586;28;45828;-74
2022/02/06 05:46:23;;;;;;;;;4.00;1.00;;;;;10.19;65.62;101482.91;5033307;28;45470;-74
2022/02/06 05:48:48;;;;;;;;;3.67;2.00;;;;;10.32;65.99;101503.47;5035939;28;45668;-74
2022/02/06 05:51:14;;;;;;;;;3.00;3.00;;;;;10.27;66.44;101502.47;5035143;28;45614;-74
2022/02/06 05:53:39;;;;;;;;;3.00;1.00;;;;;10.31;66.00;101488.50;5035282;28;47357;-75
2022/02/06 05:56:05;;;;;;;;;3.33;2.00;;;;;10.30;65.93;101506.94;5034014;28;45230;-74
2022/02/06 05:58:31;;;;;;;;;1.33;1.33;;;;;10.32;65.85;101502.59;5034213;28;57487;-75
2022/02/06 06:00:56;;;;;;;;;3.00;2.67;;;;;10.32;65.90;101500.84;5034626;28;45393;-74
2022/02/06 06:03:22;;;;;;;;;2.00;2.00;;;;;10.33;66.39;101488.53;5034748;28;58484;-74
2022/02/06 06:08:12;;;;;;;;;4.67;1.00;;;;;10.36;65.90;101494.78;5189041;22;68740;-75
2022/02/06 06:10:38;;;;;;;;;1.00;1.00;;;;;10.37;65.92;101472.78;5069217;28;53502;-75
2022/02/06 06:13:03;;;;;;;;;3.00;1.00;;;;;10.41;66.15;101484.31;5063692;28;46440;-74
2022/02/06 06:15:29;;;;;;;;;0.67;0.67;;;;;10.35;66.11;101471.88;5073346;28;45422;-74
2022/02/06 06:17:56;;;;;;;;;0.67;0.67;;;;;10.44;65.86;101484.41;5067797;28;45468;-74
2022/02/06 06:20:24;;;;;;;;;1.67;1.00;;;;;10.38;66.12;101455.19;5065239;28;45887;-74
2022/02/06 06:22:52;;;;;;;;;3.00;2.00;;;;;10.46;66.20;101459.81;5068219;28;46039;-74
2022/02/06 06:25:18;;;;;;;;;1.00;1.00;;;;;10.41;65.99;101447.38;5064290;28;45280;-75
2022/02/06 06:27:43;;;;;;;;;3.33;2.00;;;;;10.42;66.10;101431.53;5059983;28;45510;-74
2022/02/06 06:30:09;;;;;;;;;0.33;0.33;;;;;10.46;65.95;101438.69;5054763;28;47583;-74
2022/02/06 06:32:34;;;;;;;;;1.33;1.00;;;;;10.53;65.83;101450.25;5071900;28;46619;-74
2022/02/06 06:35:03;;;;;;;;;3.00;1.00;;;;;10.53;65.90;101455.53;5078485;28;45656;-74
2022/02/06 06:37:28;;;;;;;;;1.67;1.00;;;;;10.49;65.88;101462.53;5069914;28;45438;-75
2022/02/06 06:39:53;;;;;;;;;0.67;0.67;;;;;10.55;65.93;101463.50;5040172;28;50836;-75
2022/02/06 06:42:19;;;;;;;;;2.00;0.00;;;;;10.56;66.11;101462.66;5061483;28;46410;-74
2022/02/06 06:44:44;;;;;;;;;3.33;1.00;;;;;10.58;66.31;101461.81;5059105;28;45398;-75
2022/02/06 06:47:10;;;;;;;;;2.33;1.00;;;;;10.59;66.36;101457.41;5067662;28;45778;-74
2022/02/06 06:49:35;;;;;;;;;2.00;0.00;;;;;10.53;66.45;101457.28;5061360;28;45403;-74
2022/02/06 06:52:01;;;;;;;;;1.00;1.00;;;;;10.54;66.34;101456.44;5060175;28;46743;-74
2022/02/06 06:54:35;;;;;;;;;1.00;1.00;;;;;10.54;66.35;101433.53;5030604;28;45386;-74
2022/02/06 06:57:07;;;;;;;;;0.00;0.00;;;;;10.65;66.73;101437.31;5071171;28;45364;-74
2022/02/06 07:04:49;;;;;;;;;2.00;1.00;;;;;10.73;66.46;101446.28;5064555;28;45257;-74
2022/02/06 07:07:14;;;;;;;;;3.67;1.00;;;;;10.73;66.79;101426.91;5069138;28;45592;-75
2022/02/06 07:09:40;;;;;;;;;3.00;1.00;;;;;10.77;66.62;101434.03;5068459;28;45604;-75
2022/02/06 07:12:07;;;;;;;;;2.00;0.67;;;;;10.78;66.62;101446.38;5064931;28;45777;-74
2022/02/06 07:14:32;;;;;;;;;4.67;0.00;;;;;10.78;66.54;101422.59;5056572;28;45402;-74
2022/02/06 07:16:58;;;;;;;;;1.00;1.00;;;;;10.79;66.76;101423.50;5056840;28;45361;-74
2022/02/06 07:19:23;;;;;;;;;0.00;0.00;;;;;10.80;66.66;101407.66;5071641;28;45307;-74
2022/02/06 07:21:49;;;;;;;;;1.00;1.00;;;;;10.83;66.51;101393.63;5063747;28;60372;-74
2022/02/06 07:24:15;;;;;;;;;1.33;0.67;;;;;10.86;66.55;101443.88;5075452;28;45335;-75
2022/02/06 07:26:42;;;;;;;;;2.67;1.33;;;;;10.75;66.92;101378.50;5065368;28;45273;-75
2022/02/06 07:29:10;;;;;;;;;4.67;1.00;;;;;10.88;66.80;101403.44;5075893;28;45586;-75
2022/02/06 07:31:41;;;;;;;;;0.00;0.00;;;;;10.88;67.34;101416.63;5040924;28;45718;-75
2022/02/06 07:34:06;;;;;;;;;1.00;1.00;;;;;10.87;67.63;101401.66;5064996;28;45446;-75
2022/02/06 07:36:32;;;;;;;;;3.00;1.00;;;;;10.87;67.93;101400.78;5071193;28;45424;-75
2022/02/06 07:38:57;;;;;;;;;2.00;1.00;;;;;10.84;68.61;101390.13;5064125;28;56922;-77
2022/02/06 07:41:22;;;;;;;;;3.33;1.00;;;;;10.81;69.46;101375.09;5056658;28;62126;-74
2022/02/06 07:43:48;;;;;;;;;1.33;1.00;;;;;10.76;68.18;101366.22;5072381;28;58023;-75
2022/02/06 07:46:18;;;;;;;;;2.33;0.67;;;;;10.83;68.62;101386.59;5065481;28;50899;-76
2022/02/06 07:48:43;;;;;;;;;3.33;0.00;;;;;10.87;68.03;101385.81;5044755;28;45644;-75
2022/02/06 07:51:09;;;;;;;;;2.00;1.00;;;;;10.85;68.01;101363.72;5070062;28;45692;-75
2022/02/06 07:53:34;;;;;;;;;0.00;0.00;;;;;10.78;68.21;101361.84;5067283;28;59984;-74
2022/02/06 07:55:59;;;;;;;;;0.67;0.00;;;;;10.91;67.70;101374.41;5069420;28;54306;-75
2022/02/06 07:58:25;;;;;;;;;4.00;1.00;;;;;10.92;67.75;101355.06;5063596;28;45582;-75
2022/02/06 08:00:50;;;;;;;;;2.67;1.00;;;;;10.90;67.44;101348.84;5075223;28;46907;-75
2022/02/06 08:03:16;;;;;;;;;5.33;0.00;;;;;10.86;67.42;101336.44;5070794;28;57367;-76
2022/02/06 08:05:41;;;;;;;;;3.00;0.00;;;;;10.94;67.26;101352.44;5039116;28;54431;-77
2022/02/06 08:08:13;;;;;;;;;2.67;1.00;;;;;10.87;67.38;101338.25;5059959;28;45181;-76
2022/02/06 08:10:38;;;;;;;;;1.00;1.00;;;;;10.88;67.20;101313.59;5071072;28;47518;-77
2022/02/06 08:13:10;;;;;;;;;1.00;1.00;;;;;10.84;67.34;101317.03;5072027;28;45455;-77
2022/02/06 08:15:36;;;;;;;;;2.00;1.00;;;;;10.89;67.54;101315.38;5056241;28;45334;-78
2022/02/06 08:18:02;;;;;;;;;3.00;0.00;;;;;10.89;67.92;101320.66;5056208;28;45322;-77
2022/02/06 08:20:27;;;;;;;;;2.00;1.00;;;;;10.95;67.77;101328.69;5037078;28;46068;-77
2022/02/06 08:22:53;;;;;;;;;0.33;0.00;;;;;10.96;67.54;101329.56;5062531;28;46589;-81
2022/02/06 08:25:18;;;;;;;;;2.00;1.00;;;;;10.86;68.00;101303.84;5038865;28;45278;-78
2022/02/06 08:27:43;;;;;;;;;3.00;1.00;;;;;10.93;67.75;101333.06;5020531;28;45644;-77
2022/02/06 08:30:10;;;;;;;;;0.00;0.00;;;;;10.87;68.42;101305.66;5047851;28;55647;-75
2022/02/06 08:32:36;;;;;;;;;0.00;0.00;;;;;10.90;68.68;101318.91;5065323;28;45317;-78
2022/02/06 08:35:01;;;;;;;;;2.33;1.00;;;;;10.92;68.80;101311.88;5024529;28;45181;-75
2022/02/06 08:37:27;;;;;;;;;2.67;0.00;;;;;10.92;69.42;101304.88;5063842;28;45331;-76
2022/02/06 08:39:52;;;;;;;;;2.00;0.67;;;;;10.92;68.81;101296.03;5049614;28;47787;-75
2022/02/06 08:42:18;;;;;;;;;8.00;1.00;;;;;10.93;70.09;101293.44;5046386;28;45604;-75
2022/02/06 08:44:44;;;;;;;;;2.67;1.00;;;;;10.95;69.17;101283.78;5065498;27;45680;-75
2022/02/06 08:47:11;;;;;;;;;0.33;0.00;;;;;10.93;69.40;101268.78;5075309;27;45437;-75
2022/02/06 08:49:37;;;;;;;;;3.00;0.00;;;;;10.91;69.29;101252.88;5040163;28;46180;-75
2022/02/06 08:52:03;;;;;;;;;1.00;1.00;;;;;10.98;69.55;101278.56;5033264;28;45562;-75
2022/02/06 08:54:31;;;;;;;;;3.00;1.00;;;;;10.99;69.73;101266.22;5072527;27;45347;-75
2022/02/06 08:57:01;;;;;;;;;2.00;0.00;;;;;10.93;69.84;101245.88;5069362;28;45437;-75
2022/02/06 08:59:27;;;;;;;;;1.00;0.00;;;;;11.01;69.85;101261.84;5068247;27;46514;-76
2022/02/06 09:01:53;;;;;;;;;0.00;0.00;;;;;11.04;69.71;101253.09;5076916;27;45508;-75
2022/02/06 09:04:18;;;;;;;;;2.00;1.00;;;;;11.07;69.65;101254.00;5043082;28;45572;-75
2022/02/06 09:06:47;;;;;;;;;3.00;0.00;;;;;11.10;69.68;101251.44;5066333;28;54961;-75
2022/02/06 09:09:14;;;;;;;;;3.67;1.00;;;;;11.10;69.86;101247.91;5063818;28;60313;-75
2022/02/06 09:11:40;;;;;;;;;0.00;0.00;;;;;11.11;70.84;101236.47;5058892;28;45415;-75
2022/02/06 09:14:05;;;;;;;;;1.33;0.00;;;;;11.15;70.11;101246.22;5045574;28;47453;-75
2022/02/06 09:16:30;;;;;;;;;1.67;0.33;;;;;11.14;70.09;101220.66;5059728;28;45501;-75
2022/02/06 09:18:56;;;;;;;;;0.33;0.33;;;;;11.12;70.84;101230.31;5065519;28;50485;-75
2022/02/06 09:21:23;;;;;;;;;1.00;1.00;;;;;11.20;69.95;101226.91;5051160;28;45493;-75
2022/02/06 09:23:48;;;;;;;;;0.67;0.00;;;;;11.21;70.60;101257.75;5069955;28;45524;-75
2022/02/06 09:26:14;;;;;;;;;1.67;1.00;;;;;11.15;70.25;101219.78;5063702;28;45470;-75
2022/02/06 09:28:39;;;;;;;;;0.00;0.00;;;;;11.23;70.07;101223.41;5073890;28;46905;-75
2022/02/06 09:31:05;;;;;;;;;0.00;0.00;;;;;11.19;70.23;101222.50;5072836;28;53728;-75
2022/02/06 09:35:55;;;;;;;;;0.33;0.33;;;;;11.27;70.55;101230.53;5055943;28;59372;-75
2022/02/06 09:38:21;;;;;;;;;0.00;0.00;;;;;11.27;70.79;101226.13;5069629;28;54919;-75
2022/02/06 09:40:46;;;;;;;;;3.00;0.00;;;;;11.28;70.80;101214.69;5074648;28;45533;-75
2022/02/06 09:43:13;;;;;;;;;0.67;0.00;;;;;11.22;70.86;101204.03;5056843;28;45299;-75
2022/02/06 09:45:40;;;;;;;;;3.33;0.00;;;;;11.23;70.47;101203.16;5074179;28;45568;-75
2022/02/06 09:48:05;;;;;;;;;2.00;0.00;;;;;11.24;70.93;101207.59;5038880;28;46060;-75
2022/02/06 09:50:31;;;;;;;;;1.00;0.00;;;;;11.18;71.09;101190.75;5038059;28;45597;-76
2022/02/06 09:52:56;;;;;;;;;1.33;0.00;;;;;11.34;70.96;101192.72;5069071;28;45458;-75
2022/02/06 09:55:22;;;;;;;;;1.00;0.00;;;;;11.26;71.97;101194.41;5063468;28;45557;-75
2022/02/06 09:57:54;;;;;;;;;0.33;0.00;;;;;11.36;71.16;101201.59;5059573;28;46332;-75
2022/02/06 10:00:21;;;;;;;;;0.33;0.00;;;;;11.31;71.36;101186.53;5063885;28;45460;-75
2022/02/06 10:02:47;;;;;;;;;0.00;0.00;;;;;11.40;71.52;101207.78;5040717;28;45380;-75
2022/02/06 10:05:16;;;;;;;;;0.00;0.00;;;;;11.35;71.60;101201.59;5040488;28;45422;-75
2022/02/06 10:07:48;;;;;;;;;0.67;0.00;;;;;11.35;71.97;101209.50;5060531;28;59193;-74
2022/02/06 10:10:14;;;;;;;;;0.33;0.00;;;;;11.39;71.82;101191.03;5055507;28;47147;-74
2022/02/06 10:12:41;;;;;;;;;0.00;0.00;;;;;11.41;71.35;101197.25;5072082;27;45993;-75
2022/02/06 10:15:09;;;;;;;;;2.00;0.33;;;;;11.46;71.65;101192.91;5063390;28;45214;-75
2022/02/06 10:17:35;;;;;;;;;0.00;0.00;;;;;11.48;71.77;101207.03;5076917;28;47799;-74
2022/02/06 10:20:01;;;;;;;;;0.00;0.00;;;;;11.47;71.99;101207.91;5066937;28;45324;-75
2022/02/06 10:22:41;;;;;;;;;0.00;0.00;;;;;11.44;72.68;101197.28;5071635;28;45522;-76
2022/02/06 10:25:08;;;;;;;;;2.33;1.00;;;;;11.46;71.86;101219.34;5068761;28;45489;-75
2022/02/06 10:27:59;;;;;;;;;1.00;1.00;;;;;11.46;72.23;101203.50;5067946;28;46858;-75
2022/02/06 10:30:48;;;;;;;;;3.33;1.33;;;;;11.53;72.59;101196.53;5072260;28;45399;-75
2022/02/06 10:33:15;;;;;;;;;3.33;0.67;;;;;11.62;72.70;101198.41;5065336;28;45454;-74
2022/02/06 10:35:43;;;;;;;;;2.00;0.67;;;;;11.68;72.45;101194.06;5047095;28;45881;-75
2022/02/06 10:38:14;;;;;;;;;5.00;4.00;;;;;11.72;72.63;101195.91;5059072;28;47560;-75
2022/02/06 10:40:40;;;;;;;;;3.00;2.00;;;;;11.74;73.16;101180.91;5076704;28;45497;-75
2022/02/06 10:43:10;;;;;;;;;1.33;0.00;;;;;11.75;73.06;101197.69;5073946;28;45365;-74
2022/02/06 10:45:37;;;;;;;;;2.00;2.00;;;;;11.73;72.70;101196.78;5060128;28;45560;-75
2022/02/06 10:48:03;;;;;;;;;7.67;2.00;;;;;11.67;72.99;101172.91;5063849;28;46961;-75
2022/02/06 10:50:30;;;;;;;;;3.00;1.33;;;;;11.70;73.29;101178.22;5067149;28;45491;-74
2022/02/06 10:53:09;;;;;;;;;0.00;0.00;;;;;11.53;73.29;101149.81;5069863;28;45606;-75
2022/02/06 10:55:34;;;;;;;;;3.00;1.00;;;;;11.65;72.85;101145.53;5070097;28;45299;-75
2022/02/06 10:58:02;;;;;;;;;2.67;2.00;;;;;11.66;72.52;101139.34;5042865;28;57903;-75
2022/02/06 11:00:33;;;;;;;;;3.00;1.00;;;;;11.77;72.43;101151.88;5066919;28;45422;-74
2022/02/06 11:03:02;;;;;;;;;0.00;0.00;;;;;11.78;72.20;101118.34;5061712;28;45616;-75
2022/02/06 11:05:36;;;;;;;;;2.67;1.00;;;;;11.98;72.02;101164.44;5046755;28;45679;-75
2022/02/06 11:08:04;;;;;;;;;1.00;1.00;;;;;12.00;71.68;101130.06;5044373;28;46558;-76
2022/02/06 11:10:34;;;;;;;;;2.00;1.67;;;;;12.17;71.70;101141.72;5074591;28;45198;-75
2022/02/06 11:13:03;;;;;;;;;4.00;1.00;;;;;12.20;71.02;101128.50;5049842;28;45252;-75
2022/02/06 11:15:34;;;;;;;;;1.00;1.00;;;;;12.27;70.94;101127.69;5050550;28;45529;-75
2022/02/06 11:18:10;;;;;;;;;0.00;0.00;;;;;12.38;70.84;101118.94;5061909;28;47354;-75
2022/02/06 11:20:39;;;;;;;;;3.67;1.00;;;;;12.42;70.25;101107.50;5050772;28;45437;-73
2022/02/06 11:23:05;;;;;;;;;1.00;1.00;;;;;12.42;70.08;101105.75;5045507;28;45489;-74
2022/02/06 11:25:31;;;;;;;;;2.00;1.00;;;;;12.45;69.73;101089.88;5069470;28;45414;-75
2022/02/06 11:27:57;;;;;;;;;1.00;1.00;;;;;12.43;70.02;101115.47;5067393;28;46657;-76
2022/02/06 11:30:23;;;;;;;;;4.33;1.00;;;;;12.42;69.67;101091.63;5046829;28;45772;-76
2022/02/06 11:32:48;;;;;;;;;2.67;2.00;;;;;12.42;69.71;101096.91;5052660;28;45359;-76
2022/02/06 11:35:19;;;;;;;;;1.00;1.00;;;;;12.37;69.59;101103.94;5059460;28;46778;-77
2022/02/06 11:46:25;;;;;;;;;1.67;1.00;;;;;12.31;69.38;101067.72;5055544;28;45442;-77
2022/02/06 11:48:52;;;;;;;;;0.67;0.00;;;;;12.34;69.62;101080.94;5047161;28;45786;-76
2022/02/06 11:51:18;;;;;;;;;2.33;1.67;;;;;12.40;69.81;101082.75;5031222;28;45391;-75
2022/02/06 11:53:43;;;;;;;;;5.00;2.33;;;;;12.40;69.62;101081.00;5010762;28;45535;-76
2022/02/06 11:56:34;;;;;;;;;2.33;1.00;;;;;12.35;70.23;101082.72;5039185;28;45622;-76
2022/02/06 11:59:10;;;;;;;;;0.67;0.67;;;;;12.10;70.53;101064.88;5041914;28;47277;-77
2022/02/06 12:01:35;;;;;;;;;2.33;1.00;;;;;12.33;70.45;101093.31;5040844;28;45598;-82
2022/02/06 12:04:20;;;;;;;;;1.00;0.00;;;;;12.31;71.08;101078.31;5022789;28;45218;-78
2022/02/06 12:06:45;;;;;;;;;3.00;1.00;;;;;12.30;71.60;101074.78;5040635;28;45529;-76
2022/02/06 12:09:15;;;;;;;;;3.00;1.33;;;;;12.41;71.09;101076.59;5060744;28;46196;-83
2022/02/06 12:11:40;;;;;;;;;1.00;1.00;;;;;12.53;71.09;101077.56;5067720;28;45400;-78
2022/02/06 12:14:20;;;;;;;;;2.00;1.00;;;;;12.53;71.32;101072.28;5059024;28;45536;-76
2022/02/06 12:17:18;;;;;;;;;3.00;2.00;;;;;12.54;70.73;101073.16;5059091;28;45539;-76
2022/02/06 12:20:10;;;;;;;;;1.00;1.00;;;;;12.50;70.87;101079.31;5049726;28;46515;-77
2022/02/06 12:22:39;;;;;;;;;4.00;2.00;;;;;12.53;71.26;101058.16;5044633;28;45289;-77
2022/02/06 12:25:26;;;;;;;;;0.00;0.00;;;;;12.70;70.84;101061.78;5063848;28;45276;-75
2022/02/06 12:28:22;;;;;;;;;2.00;0.00;;;;;12.80;70.73;101058.31;5048780;28;45362;-80
2022/02/06 12:30:48;;;;;;;;;1.33;1.00;;;;;12.72;70.54;101000.84;5060043;28;48462;-76
2022/02/06 12:33:24;;;;;;;;;1.00;1.00;;;;;12.83;70.26;101028.28;5055756;28;45481;-75
2022/02/06 12:38:34;;;;;;;;;1.00;1.00;;;;;12.76;70.69;101035.31;5073671;28;45485;-80
2022/02/06 12:41:18;;;;;;;;;1.00;0.00;;;;;12.68;71.17;101034.41;5024864;28;47718;-74
2022/02/06 12:43:51;;;;;;;;;0.00;0.00;;;;;12.59;71.20;101024.63;5047691;28;45490;-75
2022/02/06 12:46:17;;;;;;;;;1.00;1.00;;;;;12.55;71.13;101022.84;5041376;28;45593;-77
2022/02/06 12:48:42;;;;;;;;;1.00;1.00;;;;;12.53;71.49;101021.94;5023457;28;51508;-74
2022/02/06 12:51:08;;;;;;;;;1.67;1.00;;;;;12.49;71.24;101030.75;5061033;28;46294;-75
2022/02/06 12:53:33;;;;;;;;;1.00;1.00;;;;;12.45;72.43;101028.94;5066984;28;45402;-74
2022/02/06 12:55:58;;;;;;;;;0.33;0.33;;;;;12.43;72.46;101029.84;5067431;28;55426;-74
2022/02/06 12:58:28;;;;;;;;;0.00;0.00;;;;;12.35;72.32;101016.53;5071033;28;47490;-75
2022/02/06 13:00:55;;;;;;;;;1.00;1.00;;;;;12.38;72.42;101021.84;5074321;28;47590;-75
2022/02/06 13:03:27;;;;;;;;;0.67;0.67;;;;;12.36;72.58;101033.28;5043420;28;45545;-74
2022/02/06 13:06:05;;;;;;;;;1.00;1.00;;;;;12.32;72.78;101005.94;5065713;28;45360;-75
2022/02/06 13:08:31;;;;;;;;;2.00;1.00;;;;;12.29;73.88;101003.25;5043376;28;45497;-76
2022/02/06 13:11:04;;;;;;;;;1.00;1.00;;;;;12.31;73.41;101007.69;5056813;28;46468;-75
2022/02/06 13:13:45;;;;;;;;;1.67;1.00;;;;;12.42;73.25;101022.78;5047155;28;45384;-75
2022/02/06 13:19:11;;;;;;;;;2.33;1.33;;;;;12.32;74.37;101040.34;5053471;28;45453;-75
2022/02/06 13:24:32;;;;;;;;;1.33;1.00;;;;;12.11;75.27;101029.59;5059120;28;45545;-75
2022/02/06 13:29:41;;;;;;;;;1.33;1.00;;;;;12.07;76.23;101036.63;5064942;28;45368;-74
2022/02/06 13:32:28;;;;;;;;;2.67;1.00;;;;;12.03;78.12;101027.75;5056337;28;46906;-74
2022/02/06 13:35:22;;;;;;;;;2.00;1.00;;;;;12.03;76.93;101025.09;5065247;28;45312;-75
2022/02/06 13:37:57;;;;;;;;;1.00;1.00;;;;;11.96;77.05;101007.41;5057928;28;45425;-75
2022/02/06 13:40:28;;;;;;;;;1.00;1.00;;;;;11.96;77.24;101036.53;5051247;28;45581;-75
2022/02/06 13:43:01;;;;;;;;;1.33;1.00;;;;;11.89;77.89;101010.03;5067872;28;46652;-74
2022/02/06 13:45:28;;;;;;;;;0.00;0.00;;;;;11.94;77.97;101035.66;5054677;28;45396;-74
2022/02/06 13:47:55;;;;;;;;;1.00;1.00;;;;;11.94;77.82;101011.81;5048655;28;45740;-75
2022/02/06 13:50:24;;;;;;;;;1.67;0.33;;;;;11.94;77.84;101008.31;5044167;28;46138;-75
2022/02/06 13:53:06;;;;;;;;;2.00;1.00;;;;;11.90;78.21;101001.19;5056923;28;46321;-74
2022/02/06 13:55:32;;;;;;;;;0.00;0.00;;;;;11.87;78.45;100974.69;5040154;28;45625;-75
2022/02/06 13:57:57;;;;;;;;;0.00;0.00;;;;;11.82;77.93;100965.84;5072245;28;46373;-75
2022/02/06 14:00:23;;;;;;;;;0.00;0.00;;;;;11.84;78.04;100986.16;5049174;28;45420;-74
2022/02/06 14:02:55;;;;;;;;;3.00;0.67;;;;;11.85;77.82;100953.53;5074280;28;46432;-75
2022/02/06 14:05:23;;;;;;;;;5.00;1.00;;;;;11.84;77.78;100956.19;5058591;28;45523;-74